createdAt,value
2023-03-29T00:03:18.797Z,7.40
2023-03-29T00:08:21.954Z,8.09
2023-03-29T00:13:23.676Z,7.31
2023-03-29T00:18:25.487Z,7.37
2023-03-29T00:23:27.676Z,5.66
2023-03-29T00:28:29.907Z,4.38
2023-03-29T00:33:31.932Z,3.97
2023-03-29T00:38:33.743Z,3.78
2023-03-29T00:43:59.278Z,4.03
2023-03-29T00:49:07.465Z,4.60
2023-03-29T00:54:14.632Z,3.96
2023-03-29T00:59:22.218Z,4.08
2023-03-29T01:04:32.195Z,3.48
2023-03-29T01:09:39.114Z,4.28
2023-03-29T01:14:44.557Z,5.20
2023-03-29T01:19:58.197Z,5.21
2023-03-29T01:25:20.473Z,5.23
2023-03-29T01:30:31.609Z,4.40
2023-03-29T01:35:48.351Z,4.39
2023-03-29T01:40:50.374Z,4.31
2023-03-29T01:45:55.063Z,4.51
2023-03-29T01:51:17.062Z,5.09
2023-03-29T01:56:23.140Z,3.82
2023-03-29T02:01:31.370Z,4.50
2023-03-29T02:06:36.005Z,4.17
2023-03-29T02:11:37.900Z,4.30
2023-03-29T02:16:40.850Z,3.92
2023-03-29T02:22:07.336Z,3.57
2023-03-29T02:27:09.152Z,4.20
2023-03-29T02:32:53.691Z,4.83
2023-03-29T02:37:57.826Z,3.96
2023-03-29T02:43:02.556Z,4.87
2023-03-29T02:48:10.080Z,6.98
2023-03-29T02:53:18.870Z,6.22
2023-03-29T02:58:26.675Z,6.21
2023-03-29T03:03:29.250Z,6.44
2023-03-29T03:08:33.810Z,6.83
2023-03-29T03:13:35.587Z,6.34
2023-03-29T03:18:37.959Z,5.57
2023-03-29T03:23:40.469Z,6.41
2023-03-29T03:28:43.124Z,6.68
2023-03-29T03:33:54.429Z,6.82
2023-03-29T03:39:17.316Z,8.42
2023-03-29T03:44:19.299Z,7.75
2023-03-29T03:49:27.558Z,8.94
2023-03-29T03:54:29.421Z,8.49
2023-03-29T03:59:49.695Z,5.17
2023-03-29T04:05:03.547Z,7.10
2023-03-29T04:10:11.140Z,6.27
2023-03-29T04:15:13.007Z,7.72
2023-03-29T04:20:20.845Z,4.86
2023-03-29T04:25:23.321Z,7.68
2023-03-29T04:30:34.358Z,7.68
2023-03-29T04:35:50.152Z,6.31
2023-03-29T04:40:54.916Z,7.12
2023-03-29T04:46:16.413Z,5.96
2023-03-29T04:51:39.120Z,4.45
2023-03-29T04:56:41.166Z,6.29
2023-03-29T05:02:07.350Z,7.15
2023-03-29T05:07:12.994Z,6.78
2023-03-29T05:12:14.977Z,6.50
2023-03-29T05:17:29.890Z,6.90
2023-03-29T05:22:38.300Z,7.06
2023-03-29T05:27:43.231Z,7.84
2023-03-29T05:32:46.825Z,7.69
2023-03-29T05:37:51.901Z,8.29
2023-03-29T05:42:53.790Z,8.68
2023-03-29T05:47:57.692Z,9.54
2023-03-29T05:52:59.802Z,8.96
2023-03-29T05:58:02.217Z,8.49
2023-03-29T06:03:14.071Z,8.32
2023-03-29T06:08:23.385Z,8.44
2023-03-29T06:13:37.835Z,8.34
2023-03-29T06:18:41.085Z,8.57
2023-03-29T06:23:43.191Z,8.35
2023-03-29T06:28:45.503Z,9.17
2023-03-29T06:33:47.591Z,8.51
2023-03-29T06:39:00.262Z,9.00
2023-03-29T06:44:25.613Z,9.57
2023-03-29T06:49:34.859Z,10.17
2023-03-29T06:54:48.382Z,10.01
2023-03-29T06:59:50.305Z,10.02
2023-03-29T07:04:57.098Z,10.21
2023-03-29T07:10:04.391Z,9.11
2023-03-29T07:15:21.818Z,9.37
2023-03-29T07:20:48.483Z,9.27
2023-03-29T07:25:51.183Z,9.01
2023-03-29T07:30:55.932Z,8.57
2023-03-29T07:35:57.766Z,9.01
2023-03-29T07:41:06.641Z,9.59
2023-03-29T07:46:25.919Z,10.09
2023-03-29T07:51:27.894Z,11.08
2023-03-29T07:56:38.128Z,10.41
2023-03-29T08:01:46.007Z,11.04
2023-03-29T08:07:00.531Z,10.95
2023-03-29T08:12:18.623Z,9.43
2023-03-29T08:17:20.626Z,11.06
2023-03-29T08:22:24.945Z,9.00
2023-03-29T08:27:49.748Z,9.34
2023-03-29T08:33:01.707Z,9.83
2023-03-29T08:38:03.723Z,11.08
2023-03-29T08:43:23.979Z,10.85
2023-03-29T08:48:48.638Z,11.27
2023-03-29T08:54:25.010Z,11.59
2023-03-29T08:59:49.002Z,11.64
2023-03-29T09:04:56.985Z,12.13
2023-03-29T09:10:12.545Z,12.74
2023-03-29T09:15:22.116Z,12.64
2023-03-29T09:21:17.214Z,12.96
2023-03-29T09:26:19.810Z,13.04
2023-03-29T09:31:44.510Z,12.24
2023-03-29T09:36:54.530Z,11.54
2023-03-29T09:42:09.230Z,13.05
2023-03-29T09:47:29.533Z,13.51
2023-03-29T09:52:33.959Z,12.98
2023-03-29T09:57:47.343Z,13.22
2023-03-29T10:02:54.691Z,13.87
2023-03-29T10:08:19.597Z,12.53
2023-03-29T10:13:31.568Z,13.04
2023-03-29T10:18:43.185Z,13.49
2023-03-29T10:23:45.034Z,13.92
2023-03-29T10:28:47.100Z,14.43
2023-03-29T10:33:56.269Z,14.36
2023-03-29T10:39:04.296Z,13.26
2023-03-29T10:44:08.430Z,11.74
2023-03-29T10:49:19.472Z,12.50
2023-03-29T10:54:24.189Z,11.78
2023-03-29T10:59:29.469Z,12.87
2023-03-29T11:04:43.929Z,13.37
2023-03-29T11:10:04.082Z,13.63
2023-03-29T11:15:18.120Z,13.69
2023-03-29T11:20:51.933Z,11.88
2023-03-29T11:25:53.772Z,13.25
2023-03-29T11:30:58.698Z,12.40
2023-03-29T11:36:00.530Z,13.19
2023-03-29T11:41:23.276Z,13.31
2023-03-29T11:46:27.943Z,11.66
2023-03-29T11:51:34.578Z,12.08
2023-03-29T11:56:44.230Z,13.24
2023-03-29T12:01:54.072Z,13.66
2023-03-29T12:07:00.540Z,13.56
2023-03-29T12:12:42.652Z,14.41
2023-03-29T12:17:51.662Z,14.90
2023-03-29T12:22:54.485Z,13.70
2023-03-29T12:28:15.033Z,13.94
2023-03-29T12:34:01.407Z,10.71
2023-03-29T12:39:32.862Z,11.65
2023-03-29T12:45:00.501Z,11.29
2023-03-29T12:50:22.432Z,10.89
2023-03-29T12:55:31.207Z,10.33
2023-03-29T13:00:42.513Z,11.42
2023-03-29T13:05:44.453Z,11.91
2023-03-29T13:10:53.222Z,10.70
2023-03-29T13:15:55.777Z,11.36
2023-03-29T13:21:16.097Z,11.09
2023-03-29T13:26:39.658Z,11.94
2023-03-29T13:31:53.076Z,12.91
2023-03-29T13:37:17.632Z,11.14
2023-03-29T13:42:34.348Z,13.10
2023-03-29T13:47:58.237Z,13.31
2023-03-29T13:53:22.579Z,14.09
2023-03-29T13:58:40.678Z,13.47
2023-03-29T14:03:46.702Z,14.49
2023-03-29T14:08:49.831Z,14.00
2023-03-29T14:13:56.412Z,14.18
2023-03-29T14:19:00.086Z,14.84
2023-03-29T14:24:02.682Z,16.57
2023-03-29T14:29:04.452Z,17.27
2023-03-29T14:34:11.609Z,17.47
2023-03-29T14:39:19.206Z,16.70
2023-03-29T14:44:23.316Z,16.95
2023-03-29T14:49:25.508Z,17.53
2023-03-29T14:54:31.834Z,15.54
2023-03-29T14:59:48.330Z,15.88
2023-03-29T15:05:04.743Z,16.56
2023-03-29T15:10:07.312Z,16.88
2023-03-29T15:15:12.535Z,13.24
2023-03-29T15:20:37.379Z,15.74
2023-03-29T15:25:54.116Z,16.86
2023-03-29T15:36:10.096Z,16.59
2023-03-29T15:41:13.884Z,14.89
2023-03-29T15:46:16.836Z,12.05
2023-03-29T15:51:18.801Z,11.08
2023-03-29T15:56:22.893Z,10.58
2023-03-29T16:08:33.869Z,14.73
2023-03-29T16:13:35.607Z,14.44
2023-03-29T16:18:37.775Z,12.62
2023-03-29T16:23:39.842Z,14.61
2023-03-29T16:28:42.012Z,14.51
2023-03-29T16:33:43.792Z,14.20
2023-03-29T16:38:46.014Z,14.91
2023-03-29T16:43:47.917Z,13.09
2023-03-29T16:48:51.423Z,15.75
2023-03-29T16:53:53.188Z,14.21
2023-03-29T16:58:54.987Z,12.49
2023-03-29T17:03:57.216Z,14.58
2023-03-29T17:08:59.543Z,15.30
2023-03-29T17:14:01.264Z,15.31
2023-03-29T17:19:03.001Z,13.15
2023-03-29T17:24:04.984Z,11.50
2023-03-29T17:29:06.993Z,12.23
2023-03-29T17:34:08.690Z,14.70
2023-03-29T17:39:10.804Z,13.53
2023-03-29T17:44:12.597Z,14.26
2023-03-29T17:49:14.766Z,14.05
2023-03-29T17:54:16.576Z,12.81
2023-03-29T17:59:18.392Z,14.23
2023-03-29T18:04:20.111Z,13.94
2023-03-29T18:09:21.796Z,14.38
2023-03-29T18:14:23.546Z,14.20
2023-03-29T18:19:25.400Z,14.47
2023-03-29T18:24:27.468Z,14.08
2023-03-29T18:29:29.258Z,14.87
2023-03-29T18:34:31.250Z,13.84
2023-03-29T18:39:34.716Z,15.01
2023-03-29T18:44:36.598Z,13.89
2023-03-29T18:49:38.611Z,14.26
2023-03-29T18:54:41.515Z,14.18
2023-03-29T18:59:43.236Z,14.68
2023-03-29T19:04:45.238Z,13.96
2023-03-29T19:09:46.953Z,13.57
2023-03-29T19:14:48.642Z,14.68
2023-03-29T19:19:50.388Z,14.38
2023-03-29T19:24:52.087Z,14.49
2023-03-29T19:29:54.187Z,13.72
2023-03-29T19:34:56.007Z,14.12
2023-03-29T19:39:57.684Z,14.37
2023-03-29T19:44:59.369Z,13.82
2023-03-29T19:50:02.120Z,15.17
2023-03-29T19:55:04.240Z,13.57
2023-03-29T20:00:10.791Z,14.46
2023-03-29T20:05:16.225Z,13.60
2023-03-29T20:10:18.084Z,14.36
2023-03-29T20:15:19.759Z,15.11
2023-03-29T20:20:22.987Z,15.32
2023-03-29T20:25:24.985Z,13.18
2023-03-29T20:30:26.865Z,14.08
2023-03-29T20:35:28.574Z,13.22
2023-03-29T20:40:31.600Z,14.38
2023-03-29T20:45:51.700Z,14.57
2023-03-29T20:50:55.348Z,14.81
2023-03-29T20:55:57.054Z,14.71
2023-03-29T21:00:58.960Z,14.19
2023-03-29T21:06:02.384Z,15.41
2023-03-29T21:11:04.181Z,14.91
2023-03-29T21:16:06.352Z,13.17
2023-03-29T21:21:08.856Z,14.44
2023-03-29T21:26:10.546Z,13.90
2023-03-29T21:31:12.464Z,14.43
2023-03-29T21:36:14.232Z,15.41
2023-03-29T21:41:16.978Z,15.61
2023-03-29T21:46:18.758Z,15.01
2023-03-29T21:51:20.744Z,15.20
2023-03-29T21:56:23.105Z,15.44
2023-03-29T22:01:28.148Z,15.53
2023-03-29T22:06:30.792Z,15.58
2023-03-29T22:11:32.558Z,14.60
2023-03-29T22:16:37.175Z,15.56
2023-03-29T22:21:38.961Z,15.54
2023-03-29T22:26:41.083Z,14.93
2023-03-29T22:31:42.896Z,15.25
2023-03-29T22:36:44.568Z,15.16
2023-03-29T22:41:46.664Z,14.37
2023-03-29T22:46:48.444Z,14.84
2023-03-29T22:51:50.348Z,15.36
2023-03-29T22:56:52.058Z,15.65
2023-03-29T23:01:53.964Z,14.82
2023-03-29T23:06:56.184Z,14.92
2023-03-29T23:11:57.948Z,15.23
2023-03-29T23:16:59.776Z,15.06
2023-03-29T23:22:01.586Z,14.92
2023-03-29T23:27:04.869Z,15.52
2023-03-29T23:32:06.869Z,14.90
2023-03-29T23:37:09.011Z,15.36
2023-03-29T23:42:10.857Z,15.57
2023-03-29T23:47:12.507Z,15.22
2023-03-29T23:52:14.181Z,14.92
2023-03-29T23:57:15.910Z,15.14
